createdAt,value
2018-01-21T00:01:24.288Z,17.53
2018-01-21T00:03:50.631Z,16.20
2018-01-21T00:06:16.960Z,15.80
2018-01-21T00:08:43.312Z,13.63
2018-01-21T00:11:09.630Z,14.20
2018-01-21T00:13:36.009Z,16.03
2018-01-21T00:16:03.064Z,14.80
2018-01-21T00:18:30.152Z,14.47
2018-01-21T00:20:56.452Z,15.30
2018-01-21T00:23:22.747Z,14.67
2018-01-21T00:25:49.072Z,15.47
2018-01-21T00:28:15.411Z,14.70
2018-01-21T00:30:42.440Z,15.30
2018-01-21T00:33:08.756Z,16.17
2018-01-21T00:35:35.053Z,14.37
2018-01-21T00:38:01.404Z,14.17
2018-01-21T00:40:27.715Z,14.03
2018-01-21T00:42:54.160Z,13.13
2018-01-21T00:45:20.424Z,13.73
2018-01-21T00:47:46.777Z,15.30
2018-01-21T00:50:13.816Z,15.30
2018-01-21T00:52:40.934Z,14.70
2018-01-21T00:55:07.239Z,14.37
2018-01-21T00:57:33.586Z,15.90
2018-01-21T00:59:59.916Z,14.43
2018-01-21T01:02:26.293Z,15.53
2018-01-21T01:04:53.358Z,14.73
2018-01-21T01:07:19.635Z,14.70
2018-01-21T01:09:46.023Z,15.00
2018-01-21T01:12:12.396Z,14.10
2018-01-21T01:14:38.714Z,13.77
2018-01-21T01:17:05.100Z,15.27
2018-01-21T01:19:32.219Z,15.33
2018-01-21T01:21:58.620Z,14.97
2018-01-21T01:24:25.011Z,15.87
2018-01-21T01:26:52.095Z,15.00
2018-01-21T01:29:18.412Z,14.47
2018-01-21T01:31:44.777Z,13.73
2018-01-21T01:34:11.113Z,14.20
2018-01-21T01:36:37.480Z,14.20
2018-01-21T01:39:04.524Z,14.70
2018-01-21T01:41:30.879Z,14.50
2018-01-21T01:43:57.204Z,15.00
2018-01-21T01:46:24.269Z,15.30
2018-01-21T01:48:54.464Z,15.03
2018-01-21T01:51:21.601Z,14.70
2018-01-21T01:53:47.919Z,15.37
2018-01-21T01:56:14.291Z,15.60
2018-01-21T01:58:40.621Z,14.37
2018-01-21T02:01:06.987Z,15.20
2018-01-21T02:03:33.250Z,14.90
2018-01-21T02:05:59.652Z,15.60
2018-01-21T02:08:25.977Z,14.33
2018-01-21T02:10:52.348Z,14.97
2018-01-21T02:13:18.667Z,14.80
2018-01-21T02:15:45.039Z,15.93
2018-01-21T02:18:11.294Z,15.07
2018-01-21T02:20:37.631Z,14.47
2018-01-21T02:23:04.023Z,15.20
2018-01-21T02:25:30.473Z,15.33
2018-01-21T02:27:56.827Z,16.70
2018-01-21T02:30:23.200Z,15.80
2018-01-21T02:32:49.526Z,14.80
2018-01-21T02:35:15.893Z,16.00
2018-01-21T02:37:42.219Z,15.10
2018-01-21T02:40:08.576Z,15.40
2018-01-21T02:42:34.912Z,16.50
2018-01-21T02:45:01.262Z,16.10
2018-01-21T02:47:27.595Z,14.90
2018-01-21T02:49:54.718Z,15.30
2018-01-21T02:52:21.129Z,15.90
2018-01-21T02:54:47.479Z,15.07
2018-01-21T02:57:13.799Z,15.47
2018-01-21T02:59:40.156Z,16.67
2018-01-21T03:02:06.424Z,14.30
2018-01-21T03:04:33.464Z,15.70
2018-01-21T03:06:59.796Z,14.77
2018-01-21T03:09:26.160Z,13.37
2018-01-21T03:11:52.512Z,14.40
2018-01-21T03:14:18.855Z,13.53
2018-01-21T03:16:45.227Z,14.50
2018-01-21T03:19:12.343Z,13.77
2018-01-21T03:21:38.684Z,14.00
2018-01-21T03:24:05.025Z,15.30
2018-01-21T03:26:31.293Z,14.00
2018-01-21T03:28:57.633Z,14.87
2018-01-21T03:31:23.957Z,14.60
2018-01-21T03:33:50.322Z,14.63
2018-01-21T03:36:16.656Z,14.67
2018-01-21T03:38:43.020Z,14.10
2018-01-21T03:41:09.327Z,15.17
2018-01-21T03:43:36.612Z,13.83
2018-01-21T03:46:03.673Z,14.73
2018-01-21T03:48:30.015Z,13.93
2018-01-21T03:50:56.361Z,15.17
2018-01-21T03:53:22.751Z,15.20
2018-01-21T03:55:49.870Z,14.35
2018-01-21T03:58:16.909Z,15.27
2018-01-21T04:00:43.276Z,14.40
2018-01-21T04:03:10.367Z,14.37
2018-01-21T04:05:36.697Z,16.53
2018-01-21T04:08:03.051Z,15.40
2018-01-21T04:10:29.371Z,15.10
2018-01-21T04:12:55.738Z,15.10
2018-01-21T04:15:23.164Z,15.50
2018-01-21T04:17:49.550Z,14.60
2018-01-21T04:20:16.608Z,14.57
2018-01-21T04:22:43.033Z,14.70
2018-01-21T04:25:10.032Z,13.57
2018-01-21T04:27:36.387Z,14.80
2018-01-21T04:30:02.687Z,15.10
2018-01-21T04:32:29.652Z,13.63
2018-01-21T04:34:55.984Z,15.27
2018-01-21T04:37:22.347Z,15.57
2018-01-21T04:39:48.716Z,14.90
2018-01-21T04:42:15.032Z,14.30
2018-01-21T04:44:41.404Z,15.15
2018-01-21T04:47:07.728Z,14.97
2018-01-21T04:49:34.059Z,14.40
2018-01-21T04:52:00.375Z,14.83
2018-01-21T04:54:26.788Z,14.45
2018-01-21T04:56:53.094Z,15.77
2018-01-21T04:59:20.174Z,16.67
2018-01-21T05:01:46.447Z,16.27
2018-01-21T05:04:12.785Z,14.60
2018-01-21T05:06:39.810Z,15.57
2018-01-21T05:09:06.173Z,16.27
2018-01-21T05:11:33.199Z,15.57
2018-01-21T05:13:59.579Z,16.00
2018-01-21T05:16:25.842Z,16.50
2018-01-21T05:18:52.172Z,16.03
2018-01-21T05:21:18.509Z,16.58
2018-01-21T05:23:44.823Z,15.77
2018-01-21T05:26:11.110Z,15.20
2018-01-21T05:28:37.409Z,15.97
2018-01-21T05:31:05.148Z,15.13
2018-01-21T05:33:31.444Z,16.92
2018-01-21T05:35:57.811Z,14.97
2018-01-21T05:38:24.135Z,15.77
2018-01-21T05:40:50.529Z,15.73
2018-01-21T05:43:17.647Z,14.63
2018-01-21T05:45:44.001Z,15.73
2018-01-21T05:48:11.042Z,16.43
2018-01-21T05:50:38.139Z,15.40
2018-01-21T05:53:04.448Z,15.67
2018-01-21T05:55:30.875Z,15.87
2018-01-21T05:57:57.235Z,14.20
2018-01-21T06:00:23.649Z,14.05
2018-01-21T06:02:49.939Z,15.17
2018-01-21T06:05:17.015Z,14.70
2018-01-21T06:07:43.338Z,14.73
2018-01-21T06:10:09.643Z,13.73
2018-01-21T06:12:35.936Z,12.40
2018-01-21T06:15:02.321Z,13.30
2018-01-21T06:17:29.466Z,13.20
2018-01-21T06:19:55.827Z,14.43
2018-01-21T06:22:22.131Z,14.67
2018-01-21T06:24:49.212Z,15.30
2018-01-21T06:27:15.556Z,13.23
2018-01-21T06:29:41.900Z,13.70
2018-01-21T06:32:08.175Z,12.80
2018-01-21T06:34:35.303Z,13.30
2018-01-21T06:37:01.628Z,14.27
2018-01-21T06:39:28.007Z,14.20
2018-01-21T06:41:54.298Z,14.55
2018-01-21T06:44:21.400Z,14.85
2018-01-21T06:46:47.732Z,14.05
2018-01-21T06:49:14.119Z,13.15
2018-01-21T06:51:41.296Z,13.75
2018-01-21T06:54:07.607Z,14.30
2018-01-21T06:56:34.646Z,13.97
2018-01-21T06:59:01.727Z,13.93
2018-01-21T07:01:28.047Z,13.77
2018-01-21T07:03:54.336Z,12.52
2018-01-21T07:06:20.628Z,14.73
2018-01-21T07:08:47.005Z,12.67
2018-01-21T07:11:13.328Z,12.43
2018-01-21T07:13:39.616Z,13.47
2018-01-21T07:16:06.023Z,11.63
2018-01-21T07:18:35.290Z,11.40
2018-01-21T07:21:01.575Z,11.27
2018-01-21T07:23:27.963Z,12.10
2018-01-21T07:25:54.972Z,12.33
2018-01-21T07:28:21.355Z,11.53
2018-01-21T07:30:48.384Z,12.50
2018-01-21T07:33:14.754Z,12.50
2018-01-21T07:35:41.079Z,13.07
2018-01-21T07:38:07.443Z,12.23
2018-01-21T07:40:34.495Z,11.97
2018-01-21T07:43:00.853Z,16.05
2018-01-21T07:45:27.181Z,14.50
2018-01-21T07:47:53.980Z,14.50
2018-01-21T07:50:20.276Z,14.52
2018-01-21T07:52:47.367Z,14.43
2018-01-21T07:55:13.702Z,12.70
2018-01-21T07:57:40.851Z,13.57
2018-01-21T08:00:07.196Z,13.15
2018-01-21T08:02:33.580Z,14.82
2018-01-21T08:04:59.884Z,13.38
2018-01-21T08:07:26.960Z,14.73
2018-01-21T08:09:53.276Z,13.90
2018-01-21T08:12:19.583Z,15.23
2018-01-21T08:14:45.873Z,13.30
2018-01-21T08:17:12.244Z,15.07
2018-01-21T08:19:38.578Z,15.25
2018-01-21T08:22:04.854Z,14.98
2018-01-21T08:24:31.140Z,15.80
2018-01-21T08:26:58.219Z,14.82
2018-01-21T08:29:24.544Z,15.90
2018-01-21T08:31:50.839Z,17.10
2018-01-21T08:34:23.280Z,14.65
2018-01-21T08:36:55.737Z,17.58
2018-01-21T08:39:28.220Z,19.42
2018-01-21T08:41:54.539Z,15.40
2018-01-21T08:44:20.864Z,18.67
2018-01-21T08:46:47.230Z,19.58
2018-01-21T08:49:13.551Z,20.67
2018-01-21T08:51:39.847Z,22.13
2018-01-21T08:54:06.155Z,21.20
2018-01-21T08:56:33.436Z,23.05
2018-01-21T08:58:59.744Z,24.90
2018-01-21T09:01:26.784Z,23.47
2018-01-21T09:03:53.148Z,21.92
2018-01-21T09:06:19.532Z,26.40
2018-01-21T09:08:45.906Z,28.90
2018-01-21T09:11:12.312Z,27.63
2018-01-21T09:13:38.618Z,31.73
2018-01-21T09:16:04.995Z,28.20
2018-01-21T09:18:32.048Z,34.20
2018-01-21T09:20:58.400Z,25.00
2018-01-21T09:23:24.721Z,24.60
2018-01-21T09:25:51.096Z,29.37
2018-01-21T09:28:17.420Z,28.63
2018-01-21T09:30:44.528Z,28.43
2018-01-21T09:33:10.796Z,26.33
2018-01-21T09:35:37.176Z,25.80
2018-01-21T09:38:03.544Z,27.83
2018-01-21T09:40:29.929Z,26.70
2018-01-21T09:42:56.959Z,24.50
2018-01-21T09:45:23.300Z,28.07
2018-01-21T09:47:50.351Z,26.40
2018-01-21T09:50:17.548Z,30.27
2018-01-21T09:52:43.879Z,32.17
2018-01-21T09:55:10.229Z,26.60
2018-01-21T09:57:36.560Z,22.73
2018-01-21T10:00:02.932Z,24.10
2018-01-21T10:02:30.075Z,29.07
2018-01-21T10:04:57.197Z,26.20
2018-01-21T10:07:23.467Z,26.47
2018-01-21T10:09:50.548Z,22.23
2018-01-21T10:12:16.959Z,22.23
2018-01-21T10:14:43.640Z,21.98
2018-01-21T10:17:10.012Z,24.43
2018-01-21T10:19:37.032Z,25.07
2018-01-21T10:22:03.352Z,28.70
2018-01-21T10:24:29.803Z,29.02
2018-01-21T10:26:56.156Z,27.33
2018-01-21T10:29:23.231Z,24.97
2018-01-21T10:31:49.549Z,26.37
2018-01-21T10:34:15.937Z,23.23
2018-01-21T10:36:42.320Z,23.77
2018-01-21T10:39:08.743Z,25.57
2018-01-21T10:41:35.079Z,27.87
2018-01-21T10:44:01.403Z,26.20
2018-01-21T10:46:27.757Z,29.20
2018-01-21T10:48:54.121Z,29.40
2018-01-21T10:51:20.527Z,29.93
2018-01-21T10:53:46.958Z,24.47
2018-01-21T10:56:13.231Z,25.87
2018-01-21T10:58:39.621Z,27.90
2018-01-21T11:01:06.256Z,31.65
2018-01-21T11:03:32.570Z,29.47
2018-01-21T11:05:58.894Z,28.90
2018-01-21T11:08:25.245Z,23.50
2018-01-21T11:10:51.584Z,23.30
2018-01-21T11:13:17.953Z,27.02
2018-01-21T11:15:44.981Z,26.50
2018-01-21T11:18:11.352Z,27.70
2018-01-21T11:20:37.679Z,25.27
2018-01-21T11:23:04.764Z,27.57
2018-01-21T11:25:31.083Z,28.60
2018-01-21T11:27:57.452Z,26.73
2018-01-21T11:30:23.769Z,26.00
2018-01-21T11:32:50.140Z,27.10
2018-01-21T11:35:17.176Z,29.15
2018-01-21T11:37:43.559Z,26.73
2018-01-21T11:40:09.876Z,27.27
2018-01-21T11:42:36.424Z,26.90
2018-01-21T11:45:02.796Z,27.70
2018-01-21T11:47:29.830Z,24.83
2018-01-21T11:49:56.916Z,27.97
2018-01-21T11:52:24.077Z,28.93
2018-01-21T11:54:51.125Z,26.67
2018-01-21T11:57:18.188Z,25.17
2018-01-21T11:59:44.524Z,26.83
2018-01-21T12:02:10.802Z,23.80
2018-01-21T12:04:37.116Z,25.80
2018-01-21T12:07:03.484Z,22.83
2018-01-21T12:09:30.516Z,24.30
2018-01-21T12:11:56.903Z,22.97
2018-01-21T12:14:23.216Z,40.43
2018-01-21T12:16:49.584Z,29.83
2018-01-21T12:19:15.897Z,32.40
2018-01-21T12:21:42.256Z,26.00
2018-01-21T12:24:08.608Z,25.20
2018-01-21T12:26:34.964Z,24.30
2018-01-21T12:29:01.271Z,25.37
2018-01-21T12:31:28.375Z,25.90
2018-01-21T12:33:54.673Z,25.87
2018-01-21T12:36:21.756Z,27.73
2018-01-21T12:38:48.095Z,27.77
2018-01-21T12:41:14.464Z,28.00
2018-01-21T12:43:41.505Z,29.23
2018-01-21T12:46:07.841Z,26.60
2018-01-21T12:48:34.206Z,30.23
2018-01-21T12:51:00.523Z,25.73
2018-01-21T12:53:26.898Z,26.77
2018-01-21T12:55:53.325Z,26.13
2018-01-21T12:58:19.680Z,24.10
2018-01-21T13:00:46.041Z,27.10
2018-01-21T13:03:13.131Z,29.70
2018-01-21T13:05:39.428Z,27.57
2018-01-21T13:08:05.725Z,26.47
2018-01-21T13:10:31.991Z,26.93
2018-01-21T13:12:58.369Z,29.50
2018-01-21T13:15:24.701Z,27.40
2018-01-21T13:17:51.064Z,26.13
2018-01-21T13:20:18.132Z,27.10
2018-01-21T13:22:44.447Z,28.23
2018-01-21T13:25:11.545Z,26.77
2018-01-21T13:27:37.856Z,26.17
2018-01-21T13:30:04.220Z,27.23
2018-01-21T13:32:30.574Z,26.70
2018-01-21T13:34:56.883Z,26.30
2018-01-21T13:37:23.257Z,25.63
2018-01-21T13:39:50.308Z,24.50
2018-01-21T13:42:17.344Z,25.10
2018-01-21T13:44:44.428Z,24.93
2018-01-21T13:47:10.787Z,26.07
2018-01-21T13:49:37.104Z,25.80
2018-01-21T13:52:03.472Z,23.63
2018-01-21T13:54:29.810Z,25.23
2018-01-21T13:56:56.891Z,26.30
2018-01-21T13:59:23.208Z,26.27
2018-01-21T14:01:49.573Z,24.73
2018-01-21T14:04:15.900Z,25.40
2018-01-21T14:06:42.277Z,23.43
2018-01-21T14:09:08.609Z,23.03
2018-01-21T14:11:35.015Z,24.30
2018-01-21T14:14:01.293Z,21.10
2018-01-21T14:16:28.349Z,22.73
2018-01-21T14:18:54.685Z,21.30
2018-01-21T14:21:21.047Z,23.87
2018-01-21T14:23:47.368Z,22.33
2018-01-21T14:26:13.737Z,23.00
2018-01-21T14:28:41.493Z,25.07
2018-01-21T14:31:07.867Z,21.70
2018-01-21T14:33:34.179Z,22.30
2018-01-21T14:36:01.275Z,24.27
2018-01-21T14:38:27.575Z,27.57
2018-01-21T14:40:53.988Z,25.70
2018-01-21T14:43:20.999Z,25.30
2018-01-21T14:45:47.365Z,24.23
2018-01-21T14:48:14.404Z,23.30
2018-01-21T14:50:40.768Z,24.37
2018-01-21T14:53:07.100Z,24.83
2018-01-21T14:55:33.502Z,25.47
2018-01-21T14:58:00.593Z,24.60
2018-01-21T15:00:26.973Z,25.03
2018-01-21T15:02:53.415Z,26.63
2018-01-21T15:05:20.488Z,24.60
2018-01-21T15:07:46.813Z,27.07
2018-01-21T15:10:13.151Z,26.00
2018-01-21T15:12:39.543Z,25.67
2018-01-21T15:15:06.668Z,27.60
2018-01-21T15:17:33.024Z,25.90
2018-01-21T15:19:59.336Z,25.97
2018-01-21T15:22:25.753Z,25.67
2018-01-21T15:24:52.035Z,26.50
2018-01-21T15:27:19.071Z,26.90
2018-01-21T15:29:46.096Z,26.70
2018-01-21T15:32:12.392Z,26.00
2018-01-21T15:34:38.655Z,25.80
2018-01-21T15:37:04.975Z,26.50
2018-01-21T15:39:31.248Z,26.23
2018-01-21T15:41:58.339Z,27.83
2018-01-21T15:44:24.608Z,28.80
2018-01-21T15:46:50.908Z,29.87
2018-01-21T15:49:17.946Z,28.37
2018-01-21T15:51:44.272Z,27.93
2018-01-21T15:54:10.531Z,29.90
2018-01-21T15:56:36.820Z,29.33
2018-01-21T15:59:03.095Z,28.40
2018-01-21T16:01:29.383Z,28.20
2018-01-21T16:03:55.668Z,27.00
2018-01-21T16:06:21.984Z,27.77
2018-01-21T16:08:48.260Z,27.10
2018-01-21T16:11:14.559Z,27.23
2018-01-21T16:13:40.825Z,24.13
2018-01-21T16:16:22.053Z,23.90
2018-01-21T16:18:48.308Z,27.93
2018-01-21T16:21:15.344Z,30.63
2018-01-21T16:23:41.632Z,39.43
2018-01-21T16:26:07.920Z,35.30
2018-01-21T16:28:34.203Z,30.47
2018-01-21T16:31:00.495Z,28.30
2018-01-21T16:33:26.764Z,28.40
2018-01-21T16:35:53.043Z,26.70
2018-01-21T16:38:32.275Z,30.67
2018-01-21T16:40:59.320Z,32.40
2018-01-21T16:43:26.324Z,35.50
2018-01-21T16:45:52.651Z,30.77
2018-01-21T16:48:18.917Z,30.57
2018-01-21T16:50:45.968Z,32.57
2018-01-21T16:53:12.968Z,31.30
2018-01-21T16:55:39.264Z,30.23
2018-01-21T16:58:05.532Z,30.37
2018-01-21T17:00:31.844Z,29.97
2018-01-21T17:02:58.971Z,29.53
2018-01-21T17:05:25.284Z,30.63
2018-01-21T17:07:52.292Z,31.47
2018-01-21T17:10:18.583Z,32.83
2018-01-21T17:12:44.856Z,29.90
2018-01-21T17:15:11.177Z,31.50
2018-01-21T17:17:37.444Z,28.90
2018-01-21T17:20:04.476Z,27.80
2018-01-21T17:22:30.780Z,29.47
2018-01-21T17:24:57.084Z,30.20
2018-01-21T17:27:23.352Z,28.60
2018-01-21T17:29:49.648Z,30.97
2018-01-21T17:32:15.920Z,29.77
2018-01-21T17:34:42.219Z,30.17
2018-01-21T17:37:08.480Z,28.00
2018-01-21T17:39:34.795Z,33.63
2018-01-21T17:42:01.064Z,30.10
2018-01-21T17:44:28.100Z,31.13
2018-01-21T17:46:55.100Z,33.90
2018-01-21T17:49:21.412Z,33.17
2018-01-21T17:51:47.688Z,34.60
2018-01-21T17:54:13.972Z,31.70
2018-01-21T17:56:40.977Z,36.20
2018-01-21T17:59:07.264Z,30.97
2018-01-21T18:01:33.552Z,34.90
2018-01-21T18:04:00.616Z,33.00
2018-01-21T18:06:26.968Z,34.23
2018-01-21T18:08:53.347Z,30.90
2018-01-21T18:11:19.608Z,30.90
2018-01-21T18:13:47.024Z,32.20
2018-01-21T18:16:13.291Z,35.30
2018-01-21T18:18:39.585Z,33.07
2018-01-21T18:21:06.880Z,36.77
2018-01-21T18:23:33.168Z,40.77
2018-01-21T18:25:59.428Z,32.77
2018-01-21T18:28:26.486Z,41.33
2018-01-21T18:30:52.763Z,33.47
2018-01-21T18:33:19.095Z,38.77
2018-01-21T18:35:45.400Z,33.17
2018-01-21T18:38:11.721Z,31.80
2018-01-21T18:40:38.025Z,32.87
2018-01-21T18:43:04.391Z,30.30
2018-01-21T18:45:30.785Z,29.37
2018-01-21T18:47:57.096Z,24.87
2018-01-21T18:50:24.237Z,30.40
2018-01-21T18:52:50.594Z,39.03
2018-01-21T18:55:17.645Z,27.03
2018-01-21T18:57:44.724Z,27.73
2018-01-21T19:00:11.096Z,30.13
2018-01-21T19:02:37.417Z,37.03
2018-01-21T19:05:03.753Z,27.40
2018-01-21T19:07:30.204Z,27.57
2018-01-21T19:09:57.241Z,29.97
2018-01-21T19:12:23.664Z,26.70
2018-01-21T19:14:50.063Z,30.17
2018-01-21T19:17:16.368Z,25.73
2018-01-21T19:19:42.711Z,28.87
2018-01-21T19:22:09.060Z,33.53
2018-01-21T19:24:35.579Z,27.77
2018-01-21T19:27:02.419Z,24.63
2018-01-21T19:29:29.618Z,29.75
2018-01-21T19:31:56.609Z,26.23
2018-01-21T19:34:22.947Z,25.07
2018-01-21T19:36:49.278Z,29.37
2018-01-21T19:39:21.711Z,31.33
2018-01-21T19:42:00.920Z,28.47
2018-01-21T19:44:32.160Z,25.20
2018-01-21T19:46:58.915Z,29.20
2018-01-21T19:49:25.372Z,26.37
2018-01-21T19:51:51.715Z,32.97
2018-01-21T19:54:18.755Z,30.13
2018-01-21T19:56:45.776Z,30.57
2018-01-21T19:59:12.061Z,25.90
2018-01-21T20:01:38.368Z,26.53
2018-01-21T20:04:05.419Z,23.00
2018-01-21T20:06:32.456Z,26.37
2018-01-21T20:08:59.494Z,25.60
2018-01-21T20:11:26.593Z,27.80
2018-01-21T20:13:53.033Z,27.37
2018-01-21T20:16:19.348Z,26.00
2018-01-21T20:18:45.845Z,27.00
2018-01-21T20:21:12.189Z,26.30
2018-01-21T20:23:38.491Z,25.33
2018-01-21T20:26:04.855Z,27.40
2018-01-21T20:28:31.207Z,27.50
2018-01-21T20:30:57.629Z,25.20
2018-01-21T20:33:23.988Z,27.30
2018-01-21T20:35:50.280Z,28.80
2018-01-21T20:38:16.637Z,26.17
2018-01-21T20:40:42.952Z,28.17
2018-01-21T20:43:09.297Z,25.17
2018-01-21T20:45:35.594Z,25.90
2018-01-21T20:48:02.090Z,26.80
2018-01-21T20:50:28.366Z,24.23
2018-01-21T20:52:54.879Z,24.73
2018-01-21T20:55:21.911Z,26.05
2018-01-21T20:57:48.197Z,27.03
2018-01-21T21:00:14.511Z,27.67
2018-01-21T21:02:40.872Z,27.47
2018-01-21T21:05:07.255Z,27.80
2018-01-21T21:07:33.634Z,24.83
2018-01-21T21:09:59.958Z,28.67
2018-01-21T21:12:26.297Z,28.10
2018-01-21T21:14:52.607Z,27.37
2018-01-21T21:17:18.965Z,27.67
2018-01-21T21:19:45.282Z,29.30
2018-01-21T21:22:11.685Z,28.70
2018-01-21T21:24:38.041Z,25.60
2018-01-21T21:27:04.377Z,30.40
2018-01-21T21:29:30.703Z,30.47
2018-01-21T21:31:57.032Z,26.40
2018-01-21T21:34:23.342Z,28.20
2018-01-21T21:36:49.672Z,29.80
2018-01-21T21:39:16.044Z,28.00
2018-01-21T21:41:43.222Z,27.93
2018-01-21T21:44:09.595Z,27.53
2018-01-21T21:46:35.975Z,30.00
2018-01-21T21:49:02.280Z,26.67
2018-01-21T21:51:28.691Z,29.40
2018-01-21T21:53:55.080Z,26.00
2018-01-21T21:56:21.343Z,29.93
2018-01-21T21:58:47.631Z,29.13
2018-01-21T22:01:13.904Z,29.17
2018-01-21T22:03:40.281Z,28.30
2018-01-21T22:06:06.575Z,27.93
2018-01-21T22:08:33.952Z,29.20
2018-01-21T22:11:00.217Z,29.40
2018-01-21T22:13:26.527Z,28.87
2018-01-21T22:15:52.844Z,28.47
2018-01-21T22:18:19.148Z,30.00
2018-01-21T22:20:45.475Z,26.87
2018-01-21T22:23:11.760Z,28.17
2018-01-21T22:25:38.067Z,28.60
2018-01-21T22:28:05.087Z,27.98
2018-01-21T22:30:31.344Z,27.97
2018-01-21T22:32:57.711Z,27.87
2018-01-21T22:35:24.720Z,25.90
2018-01-21T22:37:51.015Z,25.60
2018-01-21T22:40:17.296Z,26.87
2018-01-21T22:42:43.688Z,24.10
2018-01-21T22:45:10.098Z,24.23
2018-01-21T22:47:37.299Z,25.80
2018-01-21T22:50:03.671Z,26.77
2018-01-21T22:52:30.805Z,25.20
2018-01-21T22:54:57.455Z,26.90
2018-01-21T22:57:23.816Z,24.95
2018-01-21T22:59:50.080Z,24.03
2018-01-21T23:02:16.879Z,22.60
2018-01-21T23:04:43.304Z,22.13
2018-01-21T23:07:10.695Z,23.07
2018-01-21T23:09:37.087Z,20.87
2018-01-21T23:12:04.157Z,23.33
2018-01-21T23:14:30.815Z,21.45
2018-01-21T23:16:57.243Z,22.97
2018-01-21T23:19:23.699Z,23.43
2018-01-21T23:21:50.315Z,25.90
2018-01-21T23:24:16.728Z,25.70
2018-01-21T23:26:43.059Z,25.60
2018-01-21T23:29:09.609Z,24.30
2018-01-21T23:31:35.916Z,26.20
2018-01-21T23:34:02.548Z,26.07
2018-01-21T23:36:29.710Z,24.80
2018-01-21T23:38:56.055Z,25.13
2018-01-21T23:41:22.696Z,26.60
2018-01-21T23:43:49.061Z,27.00
2018-01-21T23:46:15.317Z,25.73
2018-01-21T23:48:42.860Z,25.87
2018-01-21T23:51:09.240Z,25.13
2018-01-21T23:53:36.095Z,27.87
2018-01-21T23:56:02.424Z,24.03
2018-01-21T23:58:28.754Z,25.03
